sensor_id;sensor_type;location;lat;lon;timestamp;temperature;humidity
22290;DHT22;11313;50.116;8.424;2022-09-30T00:00:14;22.10;54.20
22290;DHT22;11313;50.116;8.424;2022-09-30T00:02:41;22.10;54.20
22290;DHT22;11313;50.116;8.424;2022-09-30T00:05:07;22.10;54.20
22290;DHT22;11313;50.116;8.424;2022-09-30T00:07:33;22.10;54.10
22290;DHT22;11313;50.116;8.424;2022-09-30T00:10:01;22.10;54.20
22290;DHT22;11313;50.116;8.424;2022-09-30T00:12:27;22.10;54.10
22290;DHT22;11313;50.116;8.424;2022-09-30T00:14:53;22.10;54.10
22290;DHT22;11313;50.116;8.424;2022-09-30T00:17:18;22.10;54.10
22290;DHT22;11313;50.116;8.424;2022-09-30T00:19:44;22.00;54.10
22290;DHT22;11313;50.116;8.424;2022-09-30T00:22:11;22.00;54.10
22290;DHT22;11313;50.116;8.424;2022-09-30T00:24:36;22.00;54.20
22290;DHT22;11313;50.116;8.424;2022-09-30T00:27:02;22.00;54.10
22290;DHT22;11313;50.116;8.424;2022-09-30T00:29:28;22.00;54.20
22290;DHT22;11313;50.116;8.424;2022-09-30T00:31:53;22.00;54.20
22290;DHT22;11313;50.116;8.424;2022-09-30T00:34:19;22.00;54.10
22290;DHT22;11313;50.116;8.424;2022-09-30T00:36:47;22.10;54.10
22290;DHT22;11313;50.116;8.424;2022-09-30T00:39:15;22.10;54.20
22290;DHT22;11313;50.116;8.424;2022-09-30T00:41:44;22.10;54.10
22290;DHT22;11313;50.116;8.424;2022-09-30T00:44:49;22.00;54.10
22290;DHT22;11313;50.116;8.424;2022-09-30T00:50:29;22.00;54.10
22290;DHT22;11313;50.116;8.424;2022-09-30T00:53:19;22.00;54.10
22290;DHT22;11313;50.116;8.424;2022-09-30T00:58:23;22.00;54.00
22290;DHT22;11313;50.116;8.424;2022-09-30T01:00:49;22.00;54.10
22290;DHT22;11313;50.116;8.424;2022-09-30T01:03:16;22.00;54.00
22290;DHT22;11313;50.116;8.424;2022-09-30T01:05:43;22.00;54.00
22290;DHT22;11313;50.116;8.424;2022-09-30T01:08:09;22.10;54.00
22290;DHT22;11313;50.116;8.424;2022-09-30T01:10:35;22.10;53.90
22290;DHT22;11313;50.116;8.424;2022-09-30T01:13:01;22.10;53.90
22290;DHT22;11313;50.116;8.424;2022-09-30T01:18:56;22.10;53.70
22290;DHT22;11313;50.116;8.424;2022-09-30T01:21:39;22.10;53.70
22290;DHT22;11313;50.116;8.424;2022-09-30T01:27:46;22.20;53.70
22290;DHT22;11313;50.116;8.424;2022-09-30T01:33:32;22.20;53.50
22290;DHT22;11313;50.116;8.424;2022-09-30T01:36:23;22.20;53.50
22290;DHT22;11313;50.116;8.424;2022-09-30T01:39:18;22.20;53.40
22290;DHT22;11313;50.116;8.424;2022-09-30T01:42:02;22.30;53.40
22290;DHT22;11313;50.116;8.424;2022-09-30T01:44:39;22.30;53.40
22290;DHT22;11313;50.116;8.424;2022-09-30T01:47:11;22.30;53.40
22290;DHT22;11313;50.116;8.424;2022-09-30T01:49:48;22.30;53.30
22290;DHT22;11313;50.116;8.424;2022-09-30T01:54:54;22.30;53.20
22290;DHT22;11313;50.116;8.424;2022-09-30T01:57:32;22.30;53.20
22290;DHT22;11313;50.116;8.424;2022-09-30T02:00:08;22.30;53.20
22290;DHT22;11313;50.116;8.424;2022-09-30T02:02:49;22.30;53.10
22290;DHT22;11313;50.116;8.424;2022-09-30T02:08:20;22.40;53.20
22290;DHT22;11313;50.116;8.424;2022-09-30T02:10:52;22.40;53.20
22290;DHT22;11313;50.116;8.424;2022-09-30T02:13:35;22.40;53.10
22290;DHT22;11313;50.116;8.424;2022-09-30T02:16:06;22.40;53.10
22290;DHT22;11313;50.116;8.424;2022-09-30T02:18:42;22.40;53.10
22290;DHT22;11313;50.116;8.424;2022-09-30T02:21:11;22.40;53.10
22290;DHT22;11313;50.116;8.424;2022-09-30T02:23:41;22.40;53.10
22290;DHT22;11313;50.116;8.424;2022-09-30T02:26:20;22.40;53.10
22290;DHT22;11313;50.116;8.424;2022-09-30T02:28:51;22.40;53.10
22290;DHT22;11313;50.116;8.424;2022-09-30T02:31:21;22.40;53.10
22290;DHT22;11313;50.116;8.424;2022-09-30T02:34:21;22.40;53.10
22290;DHT22;11313;50.116;8.424;2022-09-30T02:36:58;22.40;53.10
22290;DHT22;11313;50.116;8.424;2022-09-30T02:41:54;22.40;53.10
22290;DHT22;11313;50.116;8.424;2022-09-30T02:44:23;22.40;53.10
22290;DHT22;11313;50.116;8.424;2022-09-30T02:47:10;22.40;53.00
22290;DHT22;11313;50.116;8.424;2022-09-30T02:49:54;22.40;53.00
22290;DHT22;11313;50.116;8.424;2022-09-30T02:52:30;22.40;53.00
22290;DHT22;11313;50.116;8.424;2022-09-30T02:58:08;22.40;53.00
22290;DHT22;11313;50.116;8.424;2022-09-30T03:00:36;22.40;53.00
22290;DHT22;11313;50.116;8.424;2022-09-30T03:03:09;22.40;53.00
22290;DHT22;11313;50.116;8.424;2022-09-30T03:05:36;22.40;53.00
22290;DHT22;11313;50.116;8.424;2022-09-30T03:08:02;22.40;53.10
22290;DHT22;11313;50.116;8.424;2022-09-30T03:10:28;22.40;53.00
22290;DHT22;11313;50.116;8.424;2022-09-30T03:15:42;22.40;53.10
22290;DHT22;11313;50.116;8.424;2022-09-30T03:18:28;22.40;53.00
22290;DHT22;11313;50.116;8.424;2022-09-30T03:21:04;22.40;53.00
22290;DHT22;11313;50.116;8.424;2022-09-30T03:32:08;22.40;53.00
22290;DHT22;11313;50.116;8.424;2022-09-30T03:37:31;22.40;53.00
22290;DHT22;11313;50.116;8.424;2022-09-30T03:40:07;22.40;53.00
22290;DHT22;11313;50.116;8.424;2022-09-30T03:42:52;22.40;52.90
22290;DHT22;11313;50.116;8.424;2022-09-30T03:45:32;22.40;52.90
22290;DHT22;11313;50.116;8.424;2022-09-30T03:48:03;22.40;52.90
22290;DHT22;11313;50.116;8.424;2022-09-30T03:50:31;22.40;52.90
22290;DHT22;11313;50.116;8.424;2022-09-30T03:52:58;22.40;52.90
22290;DHT22;11313;50.116;8.424;2022-09-30T03:55:24;22.40;52.90
22290;DHT22;11313;50.116;8.424;2022-09-30T03:57:50;22.40;52.90
22290;DHT22;11313;50.116;8.424;2022-09-30T04:00:16;22.40;52.90
22290;DHT22;11313;50.116;8.424;2022-09-30T04:02:43;22.40;52.90
22290;DHT22;11313;50.116;8.424;2022-09-30T04:05:10;22.40;52.90
22290;DHT22;11313;50.116;8.424;2022-09-30T04:07:36;22.40;52.90
22290;DHT22;11313;50.116;8.424;2022-09-30T04:10:01;22.40;52.90
22290;DHT22;11313;50.116;8.424;2022-09-30T04:12:27;22.40;52.90
22290;DHT22;11313;50.116;8.424;2022-09-30T04:14:52;22.40;52.90
22290;DHT22;11313;50.116;8.424;2022-09-30T04:17:18;22.40;52.90
22290;DHT22;11313;50.116;8.424;2022-09-30T04:19:43;22.30;52.90
22290;DHT22;11313;50.116;8.424;2022-09-30T04:22:09;22.30;52.90
22290;DHT22;11313;50.116;8.424;2022-09-30T04:24:35;22.30;52.90
22290;DHT22;11313;50.116;8.424;2022-09-30T04:27:00;22.30;52.90
22290;DHT22;11313;50.116;8.424;2022-09-30T04:29:26;22.30;52.90
22290;DHT22;11313;50.116;8.424;2022-09-30T04:31:52;22.30;52.90
22290;DHT22;11313;50.116;8.424;2022-09-30T04:34:18;22.30;52.90
22290;DHT22;11313;50.116;8.424;2022-09-30T04:36:43;22.30;52.90
22290;DHT22;11313;50.116;8.424;2022-09-30T04:39:09;22.30;52.90
22290;DHT22;11313;50.116;8.424;2022-09-30T04:41:35;22.30;52.80
22290;DHT22;11313;50.116;8.424;2022-09-30T04:44:01;22.30;52.80
22290;DHT22;11313;50.116;8.424;2022-09-30T04:46:34;22.30;52.90
22290;DHT22;11313;50.116;8.424;2022-09-30T04:49:04;22.30;52.80
22290;DHT22;11313;50.116;8.424;2022-09-30T04:51:30;22.30;52.80
22290;DHT22;11313;50.116;8.424;2022-09-30T04:53:56;22.30;52.80
22290;DHT22;11313;50.116;8.424;2022-09-30T04:56:21;22.30;52.80
22290;DHT22;11313;50.116;8.424;2022-09-30T04:58:48;22.30;52.90
22290;DHT22;11313;50.116;8.424;2022-09-30T05:01:15;22.30;52.90
22290;DHT22;11313;50.116;8.424;2022-09-30T05:03:41;22.30;52.90
22290;DHT22;11313;50.116;8.424;2022-09-30T05:06:11;22.30;52.90
22290;DHT22;11313;50.116;8.424;2022-09-30T05:08:37;22.30;52.90
22290;DHT22;11313;50.116;8.424;2022-09-30T05:11:05;22.30;52.90
22290;DHT22;11313;50.116;8.424;2022-09-30T05:13:36;22.30;52.90
22290;DHT22;11313;50.116;8.424;2022-09-30T05:16:03;22.30;53.50
22290;DHT22;11313;50.116;8.424;2022-09-30T05:18:29;22.30;52.80
22290;DHT22;11313;50.116;8.424;2022-09-30T05:20:56;22.30;52.80
22290;DHT22;11313;50.116;8.424;2022-09-30T05:23:23;22.30;52.80
22290;DHT22;11313;50.116;8.424;2022-09-30T05:25:49;22.30;52.80
22290;DHT22;11313;50.116;8.424;2022-09-30T05:28:15;22.30;52.90
22290;DHT22;11313;50.116;8.424;2022-09-30T05:30:41;22.30;52.90
22290;DHT22;11313;50.116;8.424;2022-09-30T05:33:08;22.30;53.40
22290;DHT22;11313;50.116;8.424;2022-09-30T05:35:34;22.30;52.80
22290;DHT22;11313;50.116;8.424;2022-09-30T05:38:00;22.30;52.90
22290;DHT22;11313;50.116;8.424;2022-09-30T05:40:28;22.30;52.90
22290;DHT22;11313;50.116;8.424;2022-09-30T05:42:56;22.30;52.90
22290;DHT22;11313;50.116;8.424;2022-09-30T05:45:22;22.30;52.90
22290;DHT22;11313;50.116;8.424;2022-09-30T05:47:54;22.30;53.00
22290;DHT22;11313;50.116;8.424;2022-09-30T05:50:21;22.30;53.00
22290;DHT22;11313;50.116;8.424;2022-09-30T05:52:47;22.30;53.00
22290;DHT22;11313;50.116;8.424;2022-09-30T05:55:14;22.30;53.00
22290;DHT22;11313;50.116;8.424;2022-09-30T05:57:40;22.30;53.00
22290;DHT22;11313;50.116;8.424;2022-09-30T06:00:07;22.30;53.00
22290;DHT22;11313;50.116;8.424;2022-09-30T06:02:33;22.30;53.00
22290;DHT22;11313;50.116;8.424;2022-09-30T06:05:06;22.30;53.00
22290;DHT22;11313;50.116;8.424;2022-09-30T06:07:35;22.30;53.00
22290;DHT22;11313;50.116;8.424;2022-09-30T06:10:06;22.30;53.00
22290;DHT22;11313;50.116;8.424;2022-09-30T06:12:36;22.30;52.90
22290;DHT22;11313;50.116;8.424;2022-09-30T06:15:03;22.30;52.90
22290;DHT22;11313;50.116;8.424;2022-09-30T06:17:28;22.30;52.90
22290;DHT22;11313;50.116;8.424;2022-09-30T06:19:54;22.30;52.80
22290;DHT22;11313;50.116;8.424;2022-09-30T06:22:20;22.30;52.80
22290;DHT22;11313;50.116;8.424;2022-09-30T06:24:45;22.30;52.80
22290;DHT22;11313;50.116;8.424;2022-09-30T06:27:11;22.30;52.70
22290;DHT22;11313;50.116;8.424;2022-09-30T06:29:37;22.30;52.80
22290;DHT22;11313;50.116;8.424;2022-09-30T06:32:03;22.30;52.70
22290;DHT22;11313;50.116;8.424;2022-09-30T06:34:29;22.30;52.70
22290;DHT22;11313;50.116;8.424;2022-09-30T06:36:54;22.30;52.70
22290;DHT22;11313;50.116;8.424;2022-09-30T06:39:20;22.40;52.70
22290;DHT22;11313;50.116;8.424;2022-09-30T06:41:45;22.40;52.70
22290;DHT22;11313;50.116;8.424;2022-09-30T06:44:11;22.40;52.60
22290;DHT22;11313;50.116;8.424;2022-09-30T06:46:37;22.40;52.60
22290;DHT22;11313;50.116;8.424;2022-09-30T06:49:03;22.40;52.50
22290;DHT22;11313;50.116;8.424;2022-09-30T06:51:30;22.40;52.50
22290;DHT22;11313;50.116;8.424;2022-09-30T06:54:00;22.40;52.50
22290;DHT22;11313;50.116;8.424;2022-09-30T06:56:26;22.40;52.50
22290;DHT22;11313;50.116;8.424;2022-09-30T06:58:52;22.40;52.50
22290;DHT22;11313;50.116;8.424;2022-09-30T07:01:17;22.50;52.50
22290;DHT22;11313;50.116;8.424;2022-09-30T07:03:45;22.50;52.50
22290;DHT22;11313;50.116;8.424;2022-09-30T07:06:13;22.50;52.50
22290;DHT22;11313;50.116;8.424;2022-09-30T07:08:39;22.50;52.40
22290;DHT22;11313;50.116;8.424;2022-09-30T07:11:08;22.50;52.40
22290;DHT22;11313;50.116;8.424;2022-09-30T07:13:37;22.50;52.40
22290;DHT22;11313;50.116;8.424;2022-09-30T07:16:04;22.50;52.40
22290;DHT22;11313;50.116;8.424;2022-09-30T07:18:29;22.50;53.00
22290;DHT22;11313;50.116;8.424;2022-09-30T07:20:55;22.50;52.40
22290;DHT22;11313;50.116;8.424;2022-09-30T07:23:22;22.50;52.30
22290;DHT22;11313;50.116;8.424;2022-09-30T07:25:58;22.50;52.30
22290;DHT22;11313;50.116;8.424;2022-09-30T07:28:25;22.50;52.30
22290;DHT22;11313;50.116;8.424;2022-09-30T07:30:54;22.50;52.30
22290;DHT22;11313;50.116;8.424;2022-09-30T07:33:24;22.50;52.30
22290;DHT22;11313;50.116;8.424;2022-09-30T07:35:55;22.60;52.30
22290;DHT22;11313;50.116;8.424;2022-09-30T07:38:23;22.50;52.20
22290;DHT22;11313;50.116;8.424;2022-09-30T07:40:59;22.60;52.30
22290;DHT22;11313;50.116;8.424;2022-09-30T07:43:26;22.60;52.30
22290;DHT22;11313;50.116;8.424;2022-09-30T07:46:12;22.60;52.30
22290;DHT22;11313;50.116;8.424;2022-09-30T07:48:40;22.60;52.20
22290;DHT22;11313;50.116;8.424;2022-09-30T07:51:11;22.60;52.30
22290;DHT22;11313;50.116;8.424;2022-09-30T07:53:38;22.60;52.20
22290;DHT22;11313;50.116;8.424;2022-09-30T07:56:05;22.60;52.20
22290;DHT22;11313;50.116;8.424;2022-09-30T07:58:30;22.60;52.20
22290;DHT22;11313;50.116;8.424;2022-09-30T08:00:56;22.60;52.20
22290;DHT22;11313;50.116;8.424;2022-09-30T08:03:22;22.60;52.20
22290;DHT22;11313;50.116;8.424;2022-09-30T08:05:47;22.60;52.20
22290;DHT22;11313;50.116;8.424;2022-09-30T08:08:15;22.60;52.20
22290;DHT22;11313;50.116;8.424;2022-09-30T08:10:41;22.60;52.10
22290;DHT22;11313;50.116;8.424;2022-09-30T08:13:07;22.60;52.20
22290;DHT22;11313;50.116;8.424;2022-09-30T08:15:33;22.60;52.20
22290;DHT22;11313;50.116;8.424;2022-09-30T08:17:58;22.60;52.20
22290;DHT22;11313;50.116;8.424;2022-09-30T08:20:24;22.60;52.20
22290;DHT22;11313;50.116;8.424;2022-09-30T08:22:54;22.60;52.30
22290;DHT22;11313;50.116;8.424;2022-09-30T08:25:21;22.60;52.30
22290;DHT22;11313;50.116;8.424;2022-09-30T08:27:47;22.60;52.30
22290;DHT22;11313;50.116;8.424;2022-09-30T08:30:12;22.60;52.30
22290;DHT22;11313;50.116;8.424;2022-09-30T08:32:38;22.60;52.20
22290;DHT22;11313;50.116;8.424;2022-09-30T08:35:04;22.60;52.20
22290;DHT22;11313;50.116;8.424;2022-09-30T08:37:30;22.60;52.20
22290;DHT22;11313;50.116;8.424;2022-09-30T08:39:55;22.60;52.20
22290;DHT22;11313;50.116;8.424;2022-09-30T08:42:42;22.60;52.30
22290;DHT22;11313;50.116;8.424;2022-09-30T08:45:36;22.60;52.30
22290;DHT22;11313;50.116;8.424;2022-09-30T08:53:40;22.50;52.30
22290;DHT22;11313;50.116;8.424;2022-09-30T08:56:07;22.50;52.30
22290;DHT22;11313;50.116;8.424;2022-09-30T08:58:38;22.60;52.30
22290;DHT22;11313;50.116;8.424;2022-09-30T09:01:34;22.60;52.30
22290;DHT22;11313;50.116;8.424;2022-09-30T09:04:02;22.60;52.20
22290;DHT22;11313;50.116;8.424;2022-09-30T09:06:38;22.60;52.30
22290;DHT22;11313;50.116;8.424;2022-09-30T09:12:12;22.60;52.30
22290;DHT22;11313;50.116;8.424;2022-09-30T09:15:21;22.50;52.30
22290;DHT22;11313;50.116;8.424;2022-09-30T09:18:07;22.60;52.30
22290;DHT22;11313;50.116;8.424;2022-09-30T09:20:56;22.60;52.30
22290;DHT22;11313;50.116;8.424;2022-09-30T09:23:22;22.60;52.40
22290;DHT22;11313;50.116;8.424;2022-09-30T09:25:49;22.60;52.40
22290;DHT22;11313;50.116;8.424;2022-09-30T09:28:35;22.60;52.30
22290;DHT22;11313;50.116;8.424;2022-09-30T09:31:03;22.50;52.30
22290;DHT22;11313;50.116;8.424;2022-09-30T09:33:35;22.50;52.40
22290;DHT22;11313;50.116;8.424;2022-09-30T09:36:39;22.50;52.40
22290;DHT22;11313;50.116;8.424;2022-09-30T09:39:14;22.50;52.40
22290;DHT22;11313;50.116;8.424;2022-09-30T09:41:53;22.50;52.50
22290;DHT22;11313;50.116;8.424;2022-09-30T09:44:39;22.50;52.60
22290;DHT22;11313;50.116;8.424;2022-09-30T09:47:11;22.50;52.60
22290;DHT22;11313;50.116;8.424;2022-09-30T09:49:44;22.50;52.60
22290;DHT22;11313;50.116;8.424;2022-09-30T10:32:43;22.50;52.80
22290;DHT22;11313;50.116;8.424;2022-09-30T10:35:35;22.50;52.80
22290;DHT22;11313;50.116;8.424;2022-09-30T10:38:20;22.50;52.80
22290;DHT22;11313;50.116;8.424;2022-09-30T10:40:56;22.50;52.80
22290;DHT22;11313;50.116;8.424;2022-09-30T10:43:42;22.50;52.80
22290;DHT22;11313;50.116;8.424;2022-09-30T10:49:35;22.50;52.80
22290;DHT22;11313;50.116;8.424;2022-09-30T10:52:46;22.50;52.70
22290;DHT22;11313;50.116;8.424;2022-09-30T10:58:33;22.40;52.80
22290;DHT22;11313;50.116;8.424;2022-09-30T11:01:40;22.40;52.80
22290;DHT22;11313;50.116;8.424;2022-09-30T11:04:40;22.50;52.90
22290;DHT22;11313;50.116;8.424;2022-09-30T11:07:31;22.40;52.90
22290;DHT22;11313;50.116;8.424;2022-09-30T11:42:00;22.40;53.00
22290;DHT22;11313;50.116;8.424;2022-09-30T11:45:29;22.40;53.00
22290;DHT22;11313;50.116;8.424;2022-09-30T11:48:38;22.40;53.00
22290;DHT22;11313;50.116;8.424;2022-09-30T12:00:36;22.40;53.00
22290;DHT22;11313;50.116;8.424;2022-09-30T12:03:24;22.40;53.00
22290;DHT22;11313;50.116;8.424;2022-09-30T12:09:12;22.40;53.10
22290;DHT22;11313;50.116;8.424;2022-09-30T12:12:06;22.40;53.10
22290;DHT22;11313;50.116;8.424;2022-09-30T12:14:45;22.30;52.90
22290;DHT22;11313;50.116;8.424;2022-09-30T12:26:42;22.40;53.10
22290;DHT22;11313;50.116;8.424;2022-09-30T12:46:11;22.40;53.20
22290;DHT22;11313;50.116;8.424;2022-09-30T12:48:53;22.40;53.30
22290;DHT22;11313;50.116;8.424;2022-09-30T12:51:23;22.40;53.40
22290;DHT22;11313;50.116;8.424;2022-09-30T12:54:01;22.40;53.20
22290;DHT22;11313;50.116;8.424;2022-09-30T12:56:33;22.40;53.30
22290;DHT22;11313;50.116;8.424;2022-09-30T12:58:59;22.50;53.40
22290;DHT22;11313;50.116;8.424;2022-09-30T13:01:42;22.40;53.40
22290;DHT22;11313;50.116;8.424;2022-09-30T13:04:16;22.50;53.40
22290;DHT22;11313;50.116;8.424;2022-09-30T13:09:30;22.40;53.30
22290;DHT22;11313;50.116;8.424;2022-09-30T13:14:32;22.40;53.40
22290;DHT22;11313;50.116;8.424;2022-09-30T13:19:51;22.40;53.50
22290;DHT22;11313;50.116;8.424;2022-09-30T13:27:36;22.40;53.40
22290;DHT22;11313;50.116;8.424;2022-09-30T13:35:33;22.40;53.40
22290;DHT22;11313;50.116;8.424;2022-09-30T13:43:36;22.40;53.40
22290;DHT22;11313;50.116;8.424;2022-09-30T13:46:06;22.40;53.40
22290;DHT22;11313;50.116;8.424;2022-09-30T13:48:38;22.40;53.50
22290;DHT22;11313;50.116;8.424;2022-09-30T13:51:10;22.40;53.50
22290;DHT22;11313;50.116;8.424;2022-09-30T13:53:53;22.40;53.50
22290;DHT22;11313;50.116;8.424;2022-09-30T13:56:29;22.40;53.50
22290;DHT22;11313;50.116;8.424;2022-09-30T14:01:53;22.40;53.50
22290;DHT22;11313;50.116;8.424;2022-09-30T14:04:38;22.40;53.50
22290;DHT22;11313;50.116;8.424;2022-09-30T14:21:45;22.30;53.40
22290;DHT22;11313;50.116;8.424;2022-09-30T14:31:58;22.40;53.60
22290;DHT22;11313;50.116;8.424;2022-09-30T14:34:24;22.40;53.70
22290;DHT22;11313;50.116;8.424;2022-09-30T14:36:52;22.40;53.70
22290;DHT22;11313;50.116;8.424;2022-09-30T14:39:23;22.40;53.70
22290;DHT22;11313;50.116;8.424;2022-09-30T14:41:58;22.40;53.80
22290;DHT22;11313;50.116;8.424;2022-09-30T14:44:28;22.40;53.80
22290;DHT22;11313;50.116;8.424;2022-09-30T14:46:55;22.40;53.80
22290;DHT22;11313;50.116;8.424;2022-09-30T14:49:28;22.40;53.80
22290;DHT22;11313;50.116;8.424;2022-09-30T14:51:58;22.40;53.80
22290;DHT22;11313;50.116;8.424;2022-09-30T14:54:26;22.40;53.80
22290;DHT22;11313;50.116;8.424;2022-09-30T14:56:56;22.40;53.80
22290;DHT22;11313;50.116;8.424;2022-09-30T14:59:30;22.40;53.80
22290;DHT22;11313;50.116;8.424;2022-09-30T15:02:02;22.40;53.80
22290;DHT22;11313;50.116;8.424;2022-09-30T15:04:32;22.40;53.80
22290;DHT22;11313;50.116;8.424;2022-09-30T15:06:58;22.40;53.80
22290;DHT22;11313;50.116;8.424;2022-09-30T15:09:35;22.40;53.80
22290;DHT22;11313;50.116;8.424;2022-09-30T15:12:10;22.40;53.80
22290;DHT22;11313;50.116;8.424;2022-09-30T15:14:54;22.40;53.80
22290;DHT22;11313;50.116;8.424;2022-09-30T15:17:26;22.40;53.80
22290;DHT22;11313;50.116;8.424;2022-09-30T15:19:53;22.40;53.80
22290;DHT22;11313;50.116;8.424;2022-09-30T15:22:20;22.40;53.80
22290;DHT22;11313;50.116;8.424;2022-09-30T15:24:47;22.40;54.50
22290;DHT22;11313;50.116;8.424;2022-09-30T15:27:20;22.40;53.80
22290;DHT22;11313;50.116;8.424;2022-09-30T15:30:19;22.40;53.80
22290;DHT22;11313;50.116;8.424;2022-09-30T15:32:45;22.40;53.80
22290;DHT22;11313;50.116;8.424;2022-09-30T15:35:18;22.40;53.90
22290;DHT22;11313;50.116;8.424;2022-09-30T15:37:46;22.40;53.90
22290;DHT22;11313;50.116;8.424;2022-09-30T15:40:17;22.40;53.90
22290;DHT22;11313;50.116;8.424;2022-09-30T15:43:04;22.40;53.90
22290;DHT22;11313;50.116;8.424;2022-09-30T15:45:35;22.40;53.80
22290;DHT22;11313;50.116;8.424;2022-09-30T15:48:04;22.30;53.80
22290;DHT22;11313;50.116;8.424;2022-09-30T15:50:41;22.40;53.80
22290;DHT22;11313;50.116;8.424;2022-09-30T15:55:41;22.40;53.80
22290;DHT22;11313;50.116;8.424;2022-09-30T16:03:32;22.40;53.80
22290;DHT22;11313;50.116;8.424;2022-09-30T16:06:08;22.30;53.80
22290;DHT22;11313;50.116;8.424;2022-09-30T16:08:47;22.30;53.80
22290;DHT22;11313;50.116;8.424;2022-09-30T16:11:19;22.40;53.80
22290;DHT22;11313;50.116;8.424;2022-09-30T16:13:47;22.30;53.70
22290;DHT22;11313;50.116;8.424;2022-09-30T16:16:39;22.30;53.80
22290;DHT22;11313;50.116;8.424;2022-09-30T16:19:16;22.30;53.80
22290;DHT22;11313;50.116;8.424;2022-09-30T16:21:49;22.30;53.80
22290;DHT22;11313;50.116;8.424;2022-09-30T16:26:47;22.30;53.70
22290;DHT22;11313;50.116;8.424;2022-09-30T16:29:13;22.30;53.80
22290;DHT22;11313;50.116;8.424;2022-09-30T16:31:40;22.30;53.70
22290;DHT22;11313;50.116;8.424;2022-09-30T16:34:05;22.30;53.80
22290;DHT22;11313;50.116;8.424;2022-09-30T16:36:31;22.30;53.80
22290;DHT22;11313;50.116;8.424;2022-09-30T16:38:56;22.30;53.70
22290;DHT22;11313;50.116;8.424;2022-09-30T16:41:24;22.30;53.70
22290;DHT22;11313;50.116;8.424;2022-09-30T16:43:50;22.30;53.70
22290;DHT22;11313;50.116;8.424;2022-09-30T16:46:15;22.30;53.80
22290;DHT22;11313;50.116;8.424;2022-09-30T16:48:41;22.30;53.70
22290;DHT22;11313;50.116;8.424;2022-09-30T16:51:12;22.30;53.80
22290;DHT22;11313;50.116;8.424;2022-09-30T16:53:39;22.30;53.80
22290;DHT22;11313;50.116;8.424;2022-09-30T16:56:10;22.30;53.80
22290;DHT22;11313;50.116;8.424;2022-09-30T16:58:38;22.30;53.80
22290;DHT22;11313;50.116;8.424;2022-09-30T17:01:03;22.30;53.90
22290;DHT22;11313;50.116;8.424;2022-09-30T17:03:29;22.30;53.80
22290;DHT22;11313;50.116;8.424;2022-09-30T17:05:55;22.30;53.80
22290;DHT22;11313;50.116;8.424;2022-09-30T17:31:49;22.30;53.90
22290;DHT22;11313;50.116;8.424;2022-09-30T17:34:27;22.40;53.90
22290;DHT22;11313;50.116;8.424;2022-09-30T17:37:01;22.20;53.80
22290;DHT22;11313;50.116;8.424;2022-09-30T17:39:32;22.30;53.80
22290;DHT22;11313;50.116;8.424;2022-09-30T17:42:03;22.30;53.80
22290;DHT22;11313;50.116;8.424;2022-09-30T17:44:49;22.30;53.80
22290;DHT22;11313;50.116;8.424;2022-09-30T17:47:17;22.30;53.80
22290;DHT22;11313;50.116;8.424;2022-09-30T17:49:43;22.30;53.80
22290;DHT22;11313;50.116;8.424;2022-09-30T17:52:11;22.30;53.80
22290;DHT22;11313;50.116;8.424;2022-09-30T17:54:39;22.30;53.80
22290;DHT22;11313;50.116;8.424;2022-09-30T17:57:07;22.20;53.70
22290;DHT22;11313;50.116;8.424;2022-09-30T17:59:43;22.20;53.80
22290;DHT22;11313;50.116;8.424;2022-09-30T18:02:31;22.30;53.80
22290;DHT22;11313;50.116;8.424;2022-09-30T18:05:02;22.20;53.80
22290;DHT22;11313;50.116;8.424;2022-09-30T18:07:39;22.20;53.80
22290;DHT22;11313;50.116;8.424;2022-09-30T18:10:09;22.20;53.80
22290;DHT22;11313;50.116;8.424;2022-09-30T18:12:55;22.20;53.80
22290;DHT22;11313;50.116;8.424;2022-09-30T18:15:21;22.20;53.80
22290;DHT22;11313;50.116;8.424;2022-09-30T18:18:02;22.20;53.80
22290;DHT22;11313;50.116;8.424;2022-09-30T18:20:49;22.20;53.80
22290;DHT22;11313;50.116;8.424;2022-09-30T18:23:20;22.10;53.70
22290;DHT22;11313;50.116;8.424;2022-09-30T18:25:58;22.20;53.80
22290;DHT22;11313;50.116;8.424;2022-09-30T18:28:35;22.20;53.90
22290;DHT22;11313;50.116;8.424;2022-09-30T18:31:09;22.10;53.80
22290;DHT22;11313;50.116;8.424;2022-09-30T18:36:48;22.10;53.80
22290;DHT22;11313;50.116;8.424;2022-09-30T18:39:26;22.20;53.90
22290;DHT22;11313;50.116;8.424;2022-09-30T18:48:32;22.20;53.90
22290;DHT22;11313;50.116;8.424;2022-09-30T18:51:14;22.20;53.80
22290;DHT22;11313;50.116;8.424;2022-09-30T18:54:14;22.10;53.80
22290;DHT22;11313;50.116;8.424;2022-09-30T18:57:27;22.10;53.80
22290;DHT22;11313;50.116;8.424;2022-09-30T19:00:23;22.10;53.80
22290;DHT22;11313;50.116;8.424;2022-09-30T19:03:17;22.20;53.90
22290;DHT22;11313;50.116;8.424;2022-09-30T19:06:04;22.20;53.90
22290;DHT22;11313;50.116;8.424;2022-09-30T19:08:41;22.20;53.90
22290;DHT22;11313;50.116;8.424;2022-09-30T19:11:43;22.20;53.80
22290;DHT22;11313;50.116;8.424;2022-09-30T19:14:28;22.20;53.90
22290;DHT22;11313;50.116;8.424;2022-09-30T19:17:05;22.20;53.80
22290;DHT22;11313;50.116;8.424;2022-09-30T19:20:11;22.10;53.90
22290;DHT22;11313;50.116;8.424;2022-09-30T19:22:51;22.10;53.80
22290;DHT22;11313;50.116;8.424;2022-09-30T19:25:33;22.10;53.80
22290;DHT22;11313;50.116;8.424;2022-09-30T19:28:38;22.20;53.90
22290;DHT22;11313;50.116;8.424;2022-09-30T19:31:36;22.10;53.80
22290;DHT22;11313;50.116;8.424;2022-09-30T19:37:21;22.10;53.90
22290;DHT22;11313;50.116;8.424;2022-09-30T19:40:18;22.10;53.90
22290;DHT22;11313;50.116;8.424;2022-09-30T19:43:12;22.10;53.90
22290;DHT22;11313;50.116;8.424;2022-09-30T19:46:16;22.10;53.80
22290;DHT22;11313;50.116;8.424;2022-09-30T19:49:03;22.20;53.80
22290;DHT22;11313;50.116;8.424;2022-09-30T19:52:00;22.10;53.80
22290;DHT22;11313;50.116;8.424;2022-09-30T19:54:31;22.10;53.80
22290;DHT22;11313;50.116;8.424;2022-09-30T19:57:29;22.10;53.90
22290;DHT22;11313;50.116;8.424;2022-09-30T20:00:17;22.10;53.90
22290;DHT22;11313;50.116;8.424;2022-09-30T20:03:15;22.10;53.80
22290;DHT22;11313;50.116;8.424;2022-09-30T20:06:17;22.10;53.90
22290;DHT22;11313;50.116;8.424;2022-09-30T20:09:11;22.10;53.80
22290;DHT22;11313;50.116;8.424;2022-09-30T20:11:42;22.10;53.80
22290;DHT22;11313;50.116;8.424;2022-09-30T20:14:19;22.00;53.70
22290;DHT22;11313;50.116;8.424;2022-09-30T20:17:32;22.10;53.90
22290;DHT22;11313;50.116;8.424;2022-09-30T20:20:26;22.10;53.90
22290;DHT22;11313;50.116;8.424;2022-09-30T20:23:23;22.10;53.80
22290;DHT22;11313;50.116;8.424;2022-09-30T20:26:05;22.10;53.70
22290;DHT22;11313;50.116;8.424;2022-09-30T20:28:59;22.00;53.80
22290;DHT22;11313;50.116;8.424;2022-09-30T20:31:48;22.10;53.90
22290;DHT22;11313;50.116;8.424;2022-09-30T20:34:38;22.10;53.80